sensor_id;sensor_type;location;lat;lon;timestamp;P1;durP1;ratioP1;P2;durP2;ratioP2
16133;SDS011;8172;45.018;5.972;2023-06-22T00:03:00;11.90;;;4.33;;
16133;SDS011;8172;45.018;5.972;2023-06-22T00:08:08;14.70;;;4.60;;
16133;SDS011;8172;45.018;5.972;2023-06-22T00:13:16;14.93;;;2.83;;
16133;SDS011;8172;45.018;5.972;2023-06-22T00:18:23;13.93;;;3.47;;
16133;SDS011;8172;45.018;5.972;2023-06-22T00:23:32;12.57;;;3.67;;
16133;SDS011;8172;45.018;5.972;2023-06-22T00:28:41;21.20;;;3.97;;
16133;SDS011;8172;45.018;5.972;2023-06-22T00:33:48;10.83;;;3.63;;
16133;SDS011;8172;45.018;5.972;2023-06-22T00:38:56;13.00;;;4.87;;
16133;SDS011;8172;45.018;5.972;2023-06-22T00:44:05;13.73;;;4.53;;
16133;SDS011;8172;45.018;5.972;2023-06-22T00:49:13;14.40;;;4.07;;
16133;SDS011;8172;45.018;5.972;2023-06-22T00:54:21;11.83;;;5.03;;
16133;SDS011;8172;45.018;5.972;2023-06-22T00:59:30;19.20;;;5.03;;
16133;SDS011;8172;45.018;5.972;2023-06-22T01:04:39;11.47;;;4.53;;
16133;SDS011;8172;45.018;5.972;2023-06-22T01:09:49;13.83;;;3.20;;
16133;SDS011;8172;45.018;5.972;2023-06-22T01:14:58;13.17;;;3.30;;
16133;SDS011;8172;45.018;5.972;2023-06-22T01:20:07;14.83;;;3.87;;
16133;SDS011;8172;45.018;5.972;2023-06-22T01:30:27;11.90;;;3.50;;
16133;SDS011;8172;45.018;5.972;2023-06-22T01:35:36;10.80;;;3.13;;
16133;SDS011;8172;45.018;5.972;2023-06-22T01:40:44;8.47;;;3.23;;
16133;SDS011;8172;45.018;5.972;2023-06-22T01:45:53;12.20;;;3.30;;
16133;SDS011;8172;45.018;5.972;2023-06-22T01:51:02;13.63;;;3.33;;
16133;SDS011;8172;45.018;5.972;2023-06-22T01:56:10;13.80;;;3.57;;
16133;SDS011;8172;45.018;5.972;2023-06-22T02:01:20;16.70;;;3.70;;
16133;SDS011;8172;45.018;5.972;2023-06-22T02:06:30;11.53;;;3.60;;
16133;SDS011;8172;45.018;5.972;2023-06-22T02:11:41;11.80;;;3.13;;
16133;SDS011;8172;45.018;5.972;2023-06-22T02:16:51;13.93;;;3.37;;
16133;SDS011;8172;45.018;5.972;2023-06-22T02:21:58;14.50;;;3.70;;
16133;SDS011;8172;45.018;5.972;2023-06-22T02:27:06;14.20;;;3.40;;
16133;SDS011;8172;45.018;5.972;2023-06-22T02:32:14;14.90;;;3.33;;
16133;SDS011;8172;45.018;5.972;2023-06-22T02:37:23;15.27;;;3.53;;
16133;SDS011;8172;45.018;5.972;2023-06-22T02:42:30;14.70;;;3.40;;
16133;SDS011;8172;45.018;5.972;2023-06-22T02:47:38;16.63;;;4.10;;
16133;SDS011;8172;45.018;5.972;2023-06-22T02:52:46;10.37;;;3.40;;
16133;SDS011;8172;45.018;5.972;2023-06-22T02:57:53;13.47;;;3.67;;
16133;SDS011;8172;45.018;5.972;2023-06-22T03:03:02;17.53;;;3.57;;
16133;SDS011;8172;45.018;5.972;2023-06-22T03:08:09;21.07;;;3.87;;
16133;SDS011;8172;45.018;5.972;2023-06-22T03:13:19;17.20;;;3.40;;
16133;SDS011;8172;45.018;5.972;2023-06-22T03:18:26;15.20;;;3.47;;
16133;SDS011;8172;45.018;5.972;2023-06-22T03:23:34;14.37;;;3.20;;
16133;SDS011;8172;45.018;5.972;2023-06-22T03:28:42;14.50;;;3.60;;
16133;SDS011;8172;45.018;5.972;2023-06-22T03:33:50;17.20;;;3.13;;
16133;SDS011;8172;45.018;5.972;2023-06-22T03:38:59;14.47;;;3.27;;
16133;SDS011;8172;45.018;5.972;2023-06-22T03:44:07;15.00;;;3.50;;
16133;SDS011;8172;45.018;5.972;2023-06-22T03:49:17;12.63;;;3.67;;
16133;SDS011;8172;45.018;5.972;2023-06-22T03:54:24;15.47;;;4.00;;
16133;SDS011;8172;45.018;5.972;2023-06-22T03:59:31;14.87;;;3.83;;
16133;SDS011;8172;45.018;5.972;2023-06-22T04:04:39;11.30;;;3.30;;
16133;SDS011;8172;45.018;5.972;2023-06-22T04:09:46;21.10;;;4.07;;
16133;SDS011;8172;45.018;5.972;2023-06-22T04:14:53;20.17;;;4.00;;
16133;SDS011;8172;45.018;5.972;2023-06-22T04:20:01;20.17;;;4.20;;
16133;SDS011;8172;45.018;5.972;2023-06-22T04:25:09;18.60;;;4.43;;
16133;SDS011;8172;45.018;5.972;2023-06-22T04:30:18;15.17;;;4.20;;
16133;SDS011;8172;45.018;5.972;2023-06-22T04:35:25;13.17;;;4.20;;
16133;SDS011;8172;45.018;5.972;2023-06-22T04:40:33;13.77;;;3.80;;
16133;SDS011;8172;45.018;5.972;2023-06-22T04:45:41;17.60;;;4.13;;
16133;SDS011;8172;45.018;5.972;2023-06-22T04:50:48;20.00;;;4.30;;
16133;SDS011;8172;45.018;5.972;2023-06-22T04:55:56;16.53;;;4.70;;
16133;SDS011;8172;45.018;5.972;2023-06-22T05:01:04;16.93;;;4.53;;
16133;SDS011;8172;45.018;5.972;2023-06-22T05:06:11;12.77;;;3.80;;
16133;SDS011;8172;45.018;5.972;2023-06-22T05:11:20;15.67;;;4.13;;
16133;SDS011;8172;45.018;5.972;2023-06-22T05:16:27;13.07;;;4.40;;
16133;SDS011;8172;45.018;5.972;2023-06-22T05:21:34;13.43;;;4.30;;
16133;SDS011;8172;45.018;5.972;2023-06-22T05:26:41;12.87;;;4.43;;
16133;SDS011;8172;45.018;5.972;2023-06-22T05:31:49;13.73;;;4.00;;
16133;SDS011;8172;45.018;5.972;2023-06-22T05:36:56;19.50;;;4.23;;
16133;SDS011;8172;45.018;5.972;2023-06-22T05:42:05;15.03;;;4.40;;
16133;SDS011;8172;45.018;5.972;2023-06-22T05:47:15;14.20;;;3.87;;
16133;SDS011;8172;45.018;5.972;2023-06-22T05:52:23;14.63;;;4.10;;
16133;SDS011;8172;45.018;5.972;2023-06-22T05:57:30;13.87;;;4.47;;
16133;SDS011;8172;45.018;5.972;2023-06-22T06:02:38;13.47;;;4.37;;
16133;SDS011;8172;45.018;5.972;2023-06-22T06:07:47;15.70;;;4.57;;
16133;SDS011;8172;45.018;5.972;2023-06-22T06:12:54;18.67;;;4.13;;
16133;SDS011;8172;45.018;5.972;2023-06-22T06:18:01;12.23;;;3.83;;
16133;SDS011;8172;45.018;5.972;2023-06-22T06:23:10;13.73;;;4.60;;
16133;SDS011;8172;45.018;5.972;2023-06-22T06:28:19;12.67;;;4.47;;
16133;SDS011;8172;45.018;5.972;2023-06-22T06:33:26;16.50;;;4.77;;
16133;SDS011;8172;45.018;5.972;2023-06-22T06:38:33;10.90;;;3.93;;
16133;SDS011;8172;45.018;5.972;2023-06-22T06:43:40;14.47;;;4.40;;
16133;SDS011;8172;45.018;5.972;2023-06-22T06:48:48;15.23;;;4.40;;
16133;SDS011;8172;45.018;5.972;2023-06-22T06:53:55;13.17;;;4.33;;
16133;SDS011;8172;45.018;5.972;2023-06-22T06:59:03;12.33;;;4.23;;
16133;SDS011;8172;45.018;5.972;2023-06-22T07:04:11;11.87;;;3.93;;
16133;SDS011;8172;45.018;5.972;2023-06-22T07:09:18;12.77;;;3.83;;
16133;SDS011;8172;45.018;5.972;2023-06-22T07:14:25;13.63;;;4.37;;
16133;SDS011;8172;45.018;5.972;2023-06-22T07:19:32;15.20;;;4.10;;
16133;SDS011;8172;45.018;5.972;2023-06-22T07:24:40;18.03;;;4.57;;
16133;SDS011;8172;45.018;5.972;2023-06-22T07:29:48;11.37;;;4.10;;
16133;SDS011;8172;45.018;5.972;2023-06-22T07:34:55;16.17;;;4.47;;
16133;SDS011;8172;45.018;5.972;2023-06-22T07:40:03;13.17;;;4.80;;
16133;SDS011;8172;45.018;5.972;2023-06-22T07:45:12;16.10;;;4.37;;
16133;SDS011;8172;45.018;5.972;2023-06-22T07:50:19;14.07;;;4.67;;
16133;SDS011;8172;45.018;5.972;2023-06-22T07:55:27;12.40;;;4.40;;
16133;SDS011;8172;45.018;5.972;2023-06-22T08:00:34;12.37;;;3.97;;
16133;SDS011;8172;45.018;5.972;2023-06-22T08:05:41;17.63;;;4.90;;
16133;SDS011;8172;45.018;5.972;2023-06-22T08:10:49;14.97;;;4.80;;
16133;SDS011;8172;45.018;5.972;2023-06-22T08:15:56;14.77;;;4.50;;
16133;SDS011;8172;45.018;5.972;2023-06-22T08:21:04;9.67;;;4.03;;
16133;SDS011;8172;45.018;5.972;2023-06-22T08:26:11;9.57;;;3.80;;
16133;SDS011;8172;45.018;5.972;2023-06-22T08:31:18;12.23;;;4.30;;
16133;SDS011;8172;45.018;5.972;2023-06-22T08:36:26;10.70;;;4.00;;
16133;SDS011;8172;45.018;5.972;2023-06-22T08:41:35;17.87;;;4.53;;
16133;SDS011;8172;45.018;5.972;2023-06-22T08:46:42;12.23;;;4.57;;
16133;SDS011;8172;45.018;5.972;2023-06-22T08:51:51;13.17;;;4.53;;
16133;SDS011;8172;45.018;5.972;2023-06-22T08:57:00;16.20;;;4.57;;
16133;SDS011;8172;45.018;5.972;2023-06-22T09:02:08;13.27;;;4.00;;
16133;SDS011;8172;45.018;5.972;2023-06-22T09:07:15;14.47;;;4.07;;
16133;SDS011;8172;45.018;5.972;2023-06-22T09:12:25;10.77;;;3.67;;
16133;SDS011;8172;45.018;5.972;2023-06-22T09:17:34;8.80;;;3.80;;
16133;SDS011;8172;45.018;5.972;2023-06-22T09:22:42;16.83;;;4.23;;
16133;SDS011;8172;45.018;5.972;2023-06-22T09:27:49;13.73;;;3.57;;
16133;SDS011;8172;45.018;5.972;2023-06-22T09:32:57;7.40;;;3.30;;
16133;SDS011;8172;45.018;5.972;2023-06-22T09:38:05;9.00;;;3.83;;
16133;SDS011;8172;45.018;5.972;2023-06-22T09:43:12;9.17;;;3.40;;
16133;SDS011;8172;45.018;5.972;2023-06-22T09:48:19;8.97;;;3.60;;
16133;SDS011;8172;45.018;5.972;2023-06-22T09:53:27;11.67;;;4.03;;
16133;SDS011;8172;45.018;5.972;2023-06-22T09:58:34;14.33;;;3.90;;
16133;SDS011;8172;45.018;5.972;2023-06-22T10:03:41;12.13;;;3.93;;
16133;SDS011;8172;45.018;5.972;2023-06-22T10:08:49;12.17;;;3.83;;
16133;SDS011;8172;45.018;5.972;2023-06-22T10:13:57;10.70;;;3.90;;
16133;SDS011;8172;45.018;5.972;2023-06-22T10:19:06;16.53;;;4.00;;
16133;SDS011;8172;45.018;5.972;2023-06-22T10:24:13;13.07;;;4.27;;
16133;SDS011;8172;45.018;5.972;2023-06-22T10:29:21;13.40;;;4.63;;
16133;SDS011;8172;45.018;5.972;2023-06-22T10:34:28;10.20;;;4.00;;
16133;SDS011;8172;45.018;5.972;2023-06-22T10:39:36;19.53;;;4.80;;
16133;SDS011;8172;45.018;5.972;2023-06-22T10:44:43;12.97;;;3.93;;
16133;SDS011;8172;45.018;5.972;2023-06-22T10:49:50;11.77;;;4.17;;
16133;SDS011;8172;45.018;5.972;2023-06-22T10:54:57;11.30;;;4.10;;
16133;SDS011;8172;45.018;5.972;2023-06-22T11:00:05;10.07;;;4.20;;
16133;SDS011;8172;45.018;5.972;2023-06-22T11:05:14;8.97;;;3.50;;
16133;SDS011;8172;45.018;5.972;2023-06-22T11:10:21;8.70;;;4.37;;
16133;SDS011;8172;45.018;5.972;2023-06-22T11:15:30;13.30;;;3.90;;
16133;SDS011;8172;45.018;5.972;2023-06-22T11:20:37;10.63;;;4.00;;
16133;SDS011;8172;45.018;5.972;2023-06-22T11:25:46;10.77;;;4.50;;
16133;SDS011;8172;45.018;5.972;2023-06-22T11:30:53;17.23;;;4.30;;
16133;SDS011;8172;45.018;5.972;2023-06-22T11:36:02;14.57;;;4.20;;
16133;SDS011;8172;45.018;5.972;2023-06-22T11:41:10;8.30;;;4.10;;
16133;SDS011;8172;45.018;5.972;2023-06-22T11:46:17;16.07;;;4.80;;
16133;SDS011;8172;45.018;5.972;2023-06-22T11:51:24;11.43;;;3.93;;
16133;SDS011;8172;45.018;5.972;2023-06-22T11:56:33;13.83;;;4.47;;
16133;SDS011;8172;45.018;5.972;2023-06-22T12:01:41;10.87;;;4.53;;
16133;SDS011;8172;45.018;5.972;2023-06-22T12:06:56;10.33;;;4.20;;
16133;SDS011;8172;45.018;5.972;2023-06-22T12:12:03;13.30;;;4.43;;
16133;SDS011;8172;45.018;5.972;2023-06-22T12:17:11;12.00;;;4.63;;
16133;SDS011;8172;45.018;5.972;2023-06-22T12:22:19;10.37;;;4.00;;
16133;SDS011;8172;45.018;5.972;2023-06-22T12:27:26;11.20;;;3.73;;
16133;SDS011;8172;45.018;5.972;2023-06-22T12:32:36;11.57;;;3.90;;
16133;SDS011;8172;45.018;5.972;2023-06-22T12:37:44;13.33;;;4.10;;
16133;SDS011;8172;45.018;5.972;2023-06-22T12:42:51;9.33;;;4.10;;
16133;SDS011;8172;45.018;5.972;2023-06-22T12:47:58;12.23;;;3.67;;
16133;SDS011;8172;45.018;5.972;2023-06-22T12:53:06;9.93;;;3.50;;
16133;SDS011;8172;45.018;5.972;2023-06-22T12:58:13;11.03;;;3.80;;
16133;SDS011;8172;45.018;5.972;2023-06-22T13:03:21;10.80;;;3.63;;
16133;SDS011;8172;45.018;5.972;2023-06-22T13:08:30;9.90;;;3.53;;
16133;SDS011;8172;45.018;5.972;2023-06-22T13:13:39;12.97;;;3.90;;
16133;SDS011;8172;45.018;5.972;2023-06-22T13:18:46;8.23;;;3.50;;
16133;SDS011;8172;45.018;5.972;2023-06-22T13:23:54;9.23;;;3.50;;
16133;SDS011;8172;45.018;5.972;2023-06-22T13:29:01;8.47;;;3.20;;
16133;SDS011;8172;45.018;5.972;2023-06-22T13:34:09;13.33;;;3.07;;
16133;SDS011;8172;45.018;5.972;2023-06-22T13:39:17;7.60;;;3.40;;
16133;SDS011;8172;45.018;5.972;2023-06-22T13:44:25;15.03;;;3.67;;
16133;SDS011;8172;45.018;5.972;2023-06-22T13:49:34;13.17;;;3.70;;
16133;SDS011;8172;45.018;5.972;2023-06-22T13:54:41;16.30;;;3.83;;
16133;SDS011;8172;45.018;5.972;2023-06-22T13:59:48;13.70;;;3.17;;
16133;SDS011;8172;45.018;5.972;2023-06-22T14:04:56;10.90;;;3.37;;
16133;SDS011;8172;45.018;5.972;2023-06-22T14:10:04;16.53;;;3.53;;
16133;SDS011;8172;45.018;5.972;2023-06-22T14:15:12;11.10;;;3.10;;
16133;SDS011;8172;45.018;5.972;2023-06-22T14:20:19;7.63;;;3.17;;
16133;SDS011;8172;45.018;5.972;2023-06-22T14:25:27;10.40;;;4.10;;
16133;SDS011;8172;45.018;5.972;2023-06-22T14:30:34;13.20;;;4.47;;
16133;SDS011;8172;45.018;5.972;2023-06-22T14:35:41;10.03;;;3.47;;
16133;SDS011;8172;45.018;5.972;2023-06-22T14:40:49;1.73;;;0.70;;
16133;SDS011;8172;45.018;5.972;2023-06-22T14:51:44;1.50;;;0.77;;
16133;SDS011;8172;45.018;5.972;2023-06-22T14:56:53;5.43;;;1.53;;
16133;SDS011;8172;45.018;5.972;2023-06-22T15:02:02;3.70;;;1.67;;
16133;SDS011;8172;45.018;5.972;2023-06-22T15:07:15;3.03;;;1.13;;
16133;SDS011;8172;45.018;5.972;2023-06-22T15:12:24;3.20;;;1.80;;
16133;SDS011;8172;45.018;5.972;2023-06-22T15:17:33;6.57;;;2.30;;
16133;SDS011;8172;45.018;5.972;2023-06-22T15:22:42;4.53;;;1.73;;
16133;SDS011;8172;45.018;5.972;2023-06-22T15:27:49;6.07;;;2.20;;
16133;SDS011;8172;45.018;5.972;2023-06-22T15:32:58;4.57;;;2.07;;
16133;SDS011;8172;45.018;5.972;2023-06-22T15:38:11;2.80;;;1.80;;
16133;SDS011;8172;45.018;5.972;2023-06-22T15:43:22;3.50;;;2.30;;
16133;SDS011;8172;45.018;5.972;2023-06-22T15:48:30;4.77;;;2.07;;
16133;SDS011;8172;45.018;5.972;2023-06-22T15:53:38;4.10;;;2.43;;
16133;SDS011;8172;45.018;5.972;2023-06-22T15:58:46;5.70;;;2.30;;
16133;SDS011;8172;45.018;5.972;2023-06-22T16:03:56;3.67;;;2.10;;
16133;SDS011;8172;45.018;5.972;2023-06-22T16:09:03;4.50;;;2.20;;
16133;SDS011;8172;45.018;5.972;2023-06-22T16:14:11;2.57;;;1.50;;
16133;SDS011;8172;45.018;5.972;2023-06-22T16:19:20;1.50;;;1.10;;
16133;SDS011;8172;45.018;5.972;2023-06-22T16:24:33;1.43;;;1.23;;
16133;SDS011;8172;45.018;5.972;2023-06-22T16:29:41;5.13;;;1.43;;
16133;SDS011;8172;45.018;5.972;2023-06-22T16:34:49;4.27;;;1.77;;
16133;SDS011;8172;45.018;5.972;2023-06-22T16:39:58;2.20;;;1.70;;
16133;SDS011;8172;45.018;5.972;2023-06-22T16:45:12;3.90;;;1.70;;
16133;SDS011;8172;45.018;5.972;2023-06-22T16:50:23;3.60;;;1.53;;
16133;SDS011;8172;45.018;5.972;2023-06-22T16:55:32;4.50;;;2.00;;
16133;SDS011;8172;45.018;5.972;2023-06-22T17:00:40;3.17;;;2.30;;
16133;SDS011;8172;45.018;5.972;2023-06-22T17:05:48;2.37;;;1.70;;
16133;SDS011;8172;45.018;5.972;2023-06-22T17:10:58;3.87;;;1.83;;
16133;SDS011;8172;45.018;5.972;2023-06-22T17:16:06;4.60;;;4.20;;
16133;SDS011;8172;45.018;5.972;2023-06-22T17:21:20;2.83;;;1.90;;
16133;SDS011;8172;45.018;5.972;2023-06-22T17:26:25;2.60;;;1.70;;
16133;SDS011;8172;45.018;5.972;2023-06-22T17:36:45;3.77;;;1.70;;
16133;SDS011;8172;45.018;5.972;2023-06-22T17:41:53;2.57;;;1.67;;
16133;SDS011;8172;45.018;5.972;2023-06-22T17:47:01;2.67;;;1.70;;
16133;SDS011;8172;45.018;5.972;2023-06-22T17:52:15;2.37;;;1.90;;
16133;SDS011;8172;45.018;5.972;2023-06-22T17:57:20;4.93;;;2.13;;
16133;SDS011;8172;45.018;5.972;2023-06-22T18:02:27;33.67;;;4.20;;
16133;SDS011;8172;45.018;5.972;2023-06-22T18:07:36;33.20;;;4.73;;
16133;SDS011;8172;45.018;5.972;2023-06-22T18:12:44;3.47;;;2.97;;
16133;SDS011;8172;45.018;5.972;2023-06-22T18:17:53;16.33;;;4.37;;
16133;SDS011;8172;45.018;5.972;2023-06-22T18:23:01;2.80;;;2.60;;
16133;SDS011;8172;45.018;5.972;2023-06-22T18:28:09;6.53;;;3.27;;
16133;SDS011;8172;45.018;5.972;2023-06-22T18:33:18;4.87;;;2.50;;
16133;SDS011;8172;45.018;5.972;2023-06-22T18:38:27;3.07;;;2.63;;
16133;SDS011;8172;45.018;5.972;2023-06-22T18:43:35;5.53;;;2.53;;
16133;SDS011;8172;45.018;5.972;2023-06-22T18:48:44;3.40;;;2.40;;
16133;SDS011;8172;45.018;5.972;2023-06-22T18:59:01;4.50;;;2.50;;
16133;SDS011;8172;45.018;5.972;2023-06-22T19:09:20;3.43;;;2.40;;
16133;SDS011;8172;45.018;5.972;2023-06-22T19:14:27;3.73;;;2.40;;
16133;SDS011;8172;45.018;5.972;2023-06-22T19:19:35;2.53;;;2.13;;
16133;SDS011;8172;45.018;5.972;2023-06-22T19:29:54;5.33;;;4.30;;
16133;SDS011;8172;45.018;5.972;2023-06-22T19:35:01;3.23;;;1.97;;
16133;SDS011;8172;45.018;5.972;2023-06-22T19:40:10;5.80;;;2.63;;
16133;SDS011;8172;45.018;5.972;2023-06-22T19:45:18;3.80;;;2.33;;
16133;SDS011;8172;45.018;5.972;2023-06-22T19:50:26;7.23;;;2.60;;
16133;SDS011;8172;45.018;5.972;2023-06-22T19:55:36;4.60;;;2.70;;
16133;SDS011;8172;45.018;5.972;2023-06-22T20:00:46;4.93;;;2.80;;
16133;SDS011;8172;45.018;5.972;2023-06-22T20:05:55;3.53;;;2.60;;
16133;SDS011;8172;45.018;5.972;2023-06-22T20:11:06;5.63;;;3.40;;
16133;SDS011;8172;45.018;5.972;2023-06-22T20:16:13;4.97;;;2.90;;
16133;SDS011;8172;45.018;5.972;2023-06-22T20:21:21;4.87;;;2.90;;
16133;SDS011;8172;45.018;5.972;2023-06-22T20:26:36;7.73;;;3.70;;
16133;SDS011;8172;45.018;5.972;2023-06-22T20:31:40;3.10;;;2.70;;
16133;SDS011;8172;45.018;5.972;2023-06-22T20:36:47;3.40;;;3.10;;
16133;SDS011;8172;45.018;5.972;2023-06-22T20:41:55;4.43;;;2.70;;
16133;SDS011;8172;45.018;5.972;2023-06-22T20:47:03;3.60;;;3.13;;
16133;SDS011;8172;45.018;5.972;2023-06-22T20:52:10;4.90;;;3.20;;
16133;SDS011;8172;45.018;5.972;2023-06-22T20:57:18;4.73;;;3.43;;
16133;SDS011;8172;45.018;5.972;2023-06-22T21:02:26;4.23;;;3.47;;
16133;SDS011;8172;45.018;5.972;2023-06-22T21:07:34;4.70;;;3.53;;
16133;SDS011;8172;45.018;5.972;2023-06-22T21:12:42;3.27;;;2.50;;
16133;SDS011;8172;45.018;5.972;2023-06-22T21:17:49;19.63;;;4.40;;
16133;SDS011;8172;45.018;5.972;2023-06-22T21:22:56;5.60;;;3.90;;
16133;SDS011;8172;45.018;5.972;2023-06-22T21:28:04;3.40;;;3.07;;
16133;SDS011;8172;45.018;5.972;2023-06-22T21:33:11;3.77;;;2.70;;
16133;SDS011;8172;45.018;5.972;2023-06-22T21:38:18;4.70;;;3.00;;
16133;SDS011;8172;45.018;5.972;2023-06-22T21:43:29;3.27;;;2.53;;
16133;SDS011;8172;45.018;5.972;2023-06-22T21:48:38;4.23;;;3.03;;
16133;SDS011;8172;45.018;5.972;2023-06-22T21:53:45;5.37;;;2.80;;
16133;SDS011;8172;45.018;5.972;2023-06-22T21:58:53;7.47;;;3.20;;
16133;SDS011;8172;45.018;5.972;2023-06-22T22:04:00;5.50;;;3.07;;
16133;SDS011;8172;45.018;5.972;2023-06-22T22:09:07;5.13;;;2.40;;
16133;SDS011;8172;45.018;5.972;2023-06-22T22:14:15;12.70;;;2.20;;
16133;SDS011;8172;45.018;5.972;2023-06-22T22:19:23;72.63;;;3.67;;
16133;SDS011;8172;45.018;5.972;2023-06-22T22:24:31;41.47;;;3.13;;
16133;SDS011;8172;45.018;5.972;2023-06-22T22:29:38;3.63;;;2.07;;
16133;SDS011;8172;45.018;5.972;2023-06-22T22:34:45;5.40;;;2.50;;
16133;SDS011;8172;45.018;5.972;2023-06-22T22:39:53;2.30;;;2.10;;
16133;SDS011;8172;45.018;5.972;2023-06-22T22:45:00;4.43;;;4.03;;
16133;SDS011;8172;45.018;5.972;2023-06-22T22:50:09;4.40;;;3.30;;
16133;SDS011;8172;45.018;5.972;2023-06-22T22:55:17;4.00;;;3.60;;
16133;SDS011;8172;45.018;5.972;2023-06-22T23:00:24;7.83;;;4.13;;
16133;SDS011;8172;45.018;5.972;2023-06-22T23:05:32;6.37;;;4.33;;
16133;SDS011;8172;45.018;5.972;2023-06-22T23:10:39;5.30;;;4.57;;
16133;SDS011;8172;45.018;5.972;2023-06-22T23:15:47;4.70;;;4.20;;
16133;SDS011;8172;45.018;5.972;2023-06-22T23:20:56;4.00;;;3.60;;
16133;SDS011;8172;45.018;5.972;2023-06-22T23:26:05;3.30;;;3.00;;
16133;SDS011;8172;45.018;5.972;2023-06-22T23:31:13;50.70;;;4.43;;
16133;SDS011;8172;45.018;5.972;2023-06-22T23:36:20;4.77;;;4.30;;
16133;SDS011;8172;45.018;5.972;2023-06-22T23:41:27;7.30;;;4.30;;
16133;SDS011;8172;45.018;5.972;2023-06-22T23:46:36;37.50;;;5.47;;
16133;SDS011;8172;45.018;5.972;2023-06-22T23:51:43;5.27;;;4.30;;
16133;SDS011;8172;45.018;5.972;2023-06-22T23:56:51;4.27;;;3.87;;
